Погода Ковроваяна неделю

Витебская область, Белоруссия

23 - 29 мая
  • 23мая
    Сегодня
    +12°
    +24°
    Ясно и безоблачно
    ВремяПогодаТемператураВлажностьДавлениеВетер, м/сВероятность осадков
    00:00Ясно и безоблачно+17°C91 %753 мм2.8 м/с1 %
    03:00Ясно и безоблачно+15°C93 %753 мм3.3 м/с2 %
    06:00Ясно и безоблачно+15°C84 %754 мм3.6 м/с2 %
    09:00Ясно и безоблачно+18°C64 %755 мм3.7 м/с2 %
    12:00Ясно и безоблачно+21°C55 %755 мм4.9 м/с2 %
    15:00Ясно и безоблачно+24°C45 %755 мм5.2 м/с2 %
    18:00Ясно и безоблачно+23°C45 %755 мм4.5 м/с3 %
    21:00Ясно и безоблачно+19°C55 %756 мм3.7 м/с2 %
  • 24мая
    Пятница
    +10°
    +22°
    Ясно и безоблачно
    ВремяПогодаТемператураВлажностьДавлениеВетер, м/сВероятность осадков
    00:00Ясно и безоблачно+16°C55 %757 мм4.6 м/с2 %
    03:00Ясно и безоблачно+13°C59 %758 мм4.0 м/с2 %
    06:00Ясно и безоблачно+12°C64 %759 мм4.1 м/с2 %
    09:00Ясно и безоблачно+16°C55 %759 мм3.8 м/с2 %
    12:00Ясно и безоблачно+19°C45 %759 мм4.5 м/с2 %
    15:00Ясно и безоблачно+22°C41 %759 мм4.6 м/с2 %
    18:00Ясно и безоблачно+21°C41 %758 мм4.3 м/с2 %
    21:00Ясно и безоблачно+16°C56 %758 мм2.7 м/с2 %
  • 25мая
    Суббота
    +10°
    +24°
    Ясно и безоблачно
    ВремяПогодаТемператураВлажностьДавлениеВетер, м/сВероятность осадков
    00:00Ясно и безоблачно+13°C61 %758 мм3.2 м/с2 %
    03:00Ясно и безоблачно+11°C67 %758 мм3.1 м/с2 %
    06:00Ясно и безоблачно+11°C71 %758 мм3.4 м/с2 %
    09:00Ясно и безоблачно+17°C60 %758 мм2.9 м/с2 %
    12:00Ясно и безоблачно+21°C47 %757 мм3.5 м/с2 %
    15:00Ясно и безоблачно+24°C38 %756 мм3.9 м/с3 %
    18:00Ясно и безоблачно+23°C40 %755 мм3.2 м/с3 %
    21:00Ясно и безоблачно+18°C63 %755 мм2.3 м/с2 %
  • 26мая
    Воскресенье
    +10°
    +25°
    Ясно и безоблачно
    ВремяПогодаТемператураВлажностьДавлениеВетер, м/сВероятность осадков
    00:00Ясно и безоблачно+14°C71 %755 мм2.4 м/с2 %
    03:00Ясно и безоблачно+12°C76 %755 мм2.1 м/с4 %
    06:00Практически безоблачно+12°C76 %755 мм1.6 м/с3 %
    09:00Ясно и безоблачно+19°C54 %755 мм1.2 м/с3 %
    12:00Ясно и безоблачно+22°C40 %755 мм2.6 м/с2 %
    15:00Ясно и безоблачно+25°C35 %755 мм2.6 м/с10 %
    18:00Практически безоблачно+24°C38 %754 мм2.1 м/с11 %
    21:00Практически безоблачно+18°C65 %754 мм2.2 м/с3 %
  • 27мая
    Понедельник
    +13°
    +26°
    Ясно и безоблачно
    ВремяПогодаТемператураВлажностьДавлениеВетер, м/сВероятность осадков
    00:00Небольшая облачность+14°C66 %755 мм1.9 м/с2 %
    03:00Ясно и безоблачно+12°C76 %755 мм2.6 м/с2 %
    06:00Ясно и безоблачно+13°C76 %756 мм1.9 м/с2 %
    09:00Ясно и безоблачно+20°C58 %756 мм1.2 м/с2 %
    12:00Практически безоблачно+24°C39 %756 мм2.3 м/с18 %
    15:00Ясно и безоблачно+26°C40 %756 мм3.2 м/с17 %
    18:00Ясно и безоблачно+25°C43 %755 мм2.3 м/с32 %
    21:00Ясно и безоблачно+20°C67 %755 мм1.9 м/с14 %
Мы используем cookies
Соглашаюсь